sensor_id;sensor_type;location;lat;lon;timestamp;P1;durP1;ratioP1;P2;durP2;ratioP2
1987;SDS011;12775;46.994;15.498;2024-01-30T00:00:05;21.82;;;17.86;;
1987;SDS011;12775;46.994;15.498;2024-01-30T00:02:33;25.02;;;18.18;;
1987;SDS011;12775;46.994;15.498;2024-01-30T00:05:00;22.00;;;17.22;;
1987;SDS011;12775;46.994;15.498;2024-01-30T00:07:27;26.68;;;17.78;;
1987;SDS011;12775;46.994;15.498;2024-01-30T00:09:54;29.06;;;21.84;;
1987;SDS011;12775;46.994;15.498;2024-01-30T00:12:20;24.82;;;18.94;;
1987;SDS011;12775;46.994;15.498;2024-01-30T00:14:47;27.52;;;19.38;;
1987;SDS011;12775;46.994;15.498;2024-01-30T00:17:14;27.32;;;18.96;;
1987;SDS011;12775;46.994;15.498;2024-01-30T00:19:40;27.66;;;19.34;;
1987;SDS011;12775;46.994;15.498;2024-01-30T00:22:07;30.18;;;18.76;;
1987;SDS011;12775;46.994;15.498;2024-01-30T00:24:33;21.06;;;16.84;;
1987;SDS011;12775;46.994;15.498;2024-01-30T00:27:00;20.64;;;16.62;;
1987;SDS011;12775;46.994;15.498;2024-01-30T00:29:27;21.02;;;15.36;;
1987;SDS011;12775;46.994;15.498;2024-01-30T00:31:53;23.68;;;17.52;;
1987;SDS011;12775;46.994;15.498;2024-01-30T00:34:20;22.12;;;15.86;;
1987;SDS011;12775;46.994;15.498;2024-01-30T00:36:46;24.46;;;18.46;;
1987;SDS011;12775;46.994;15.498;2024-01-30T00:39:13;23.26;;;16.46;;
1987;SDS011;12775;46.994;15.498;2024-01-30T00:41:40;26.66;;;18.36;;
1987;SDS011;12775;46.994;15.498;2024-01-30T00:44:06;23.08;;;17.40;;
1987;SDS011;12775;46.994;15.498;2024-01-30T00:46:33;27.06;;;18.32;;
1987;SDS011;12775;46.994;15.498;2024-01-30T00:48:59;27.18;;;18.12;;
1987;SDS011;12775;46.994;15.498;2024-01-30T00:51:26;23.00;;;18.92;;
1987;SDS011;12775;46.994;15.498;2024-01-30T00:53:53;24.44;;;15.90;;
1987;SDS011;12775;46.994;15.498;2024-01-30T00:56:19;22.56;;;16.86;;
1987;SDS011;12775;46.994;15.498;2024-01-30T00:58:47;23.16;;;16.00;;
1987;SDS011;12775;46.994;15.498;2024-01-30T01:01:13;22.20;;;17.10;;
1987;SDS011;12775;46.994;15.498;2024-01-30T01:03:40;23.60;;;16.18;;
1987;SDS011;12775;46.994;15.498;2024-01-30T01:06:06;25.80;;;19.22;;
1987;SDS011;12775;46.994;15.498;2024-01-30T01:08:33;21.92;;;17.16;;
1987;SDS011;12775;46.994;15.498;2024-01-30T01:11:00;21.68;;;14.50;;
1987;SDS011;12775;46.994;15.498;2024-01-30T01:13:26;24.00;;;17.18;;
1987;SDS011;12775;46.994;15.498;2024-01-30T01:15:53;22.54;;;15.48;;
1987;SDS011;12775;46.994;15.498;2024-01-30T01:18:19;24.26;;;17.24;;
1987;SDS011;12775;46.994;15.498;2024-01-30T01:20:46;29.58;;;17.84;;
1987;SDS011;12775;46.994;15.498;2024-01-30T01:23:13;26.14;;;16.46;;
1987;SDS011;12775;46.994;15.498;2024-01-30T01:25:39;24.72;;;17.04;;
1987;SDS011;12775;46.994;15.498;2024-01-30T01:28:06;21.44;;;16.70;;
1987;SDS011;12775;46.994;15.498;2024-01-30T01:30:32;21.44;;;16.48;;
1987;SDS011;12775;46.994;15.498;2024-01-30T01:33:00;25.24;;;19.32;;
1987;SDS011;12775;46.994;15.498;2024-01-30T01:35:26;24.96;;;17.34;;
1987;SDS011;12775;46.994;15.498;2024-01-30T01:37:53;24.34;;;15.60;;
1987;SDS011;12775;46.994;15.498;2024-01-30T01:40:22;23.32;;;19.10;;
1987;SDS011;12775;46.994;15.498;2024-01-30T01:42:47;23.92;;;18.28;;
1987;SDS011;12775;46.994;15.498;2024-01-30T01:45:14;23.50;;;16.48;;
1987;SDS011;12775;46.994;15.498;2024-01-30T01:47:40;25.18;;;17.54;;
1987;SDS011;12775;46.994;15.498;2024-01-30T01:50:08;23.90;;;18.48;;
1987;SDS011;12775;46.994;15.498;2024-01-30T01:52:35;24.24;;;16.74;;
1987;SDS011;12775;46.994;15.498;2024-01-30T01:55:01;23.14;;;16.34;;
1987;SDS011;12775;46.994;15.498;2024-01-30T01:57:28;28.30;;;16.94;;
1987;SDS011;12775;46.994;15.498;2024-01-30T01:59:54;28.94;;;18.90;;
1987;SDS011;12775;46.994;15.498;2024-01-30T02:02:21;26.16;;;17.84;;
1987;SDS011;12775;46.994;15.498;2024-01-30T02:04:47;30.70;;;19.84;;
1987;SDS011;12775;46.994;15.498;2024-01-30T02:07:14;27.40;;;18.12;;
1987;SDS011;12775;46.994;15.498;2024-01-30T02:09:42;29.14;;;19.92;;
1987;SDS011;12775;46.994;15.498;2024-01-30T02:12:09;28.02;;;20.66;;
1987;SDS011;12775;46.994;15.498;2024-01-30T02:14:44;27.62;;;16.70;;
1987;SDS011;12775;46.994;15.498;2024-01-30T02:17:08;24.32;;;19.34;;
1987;SDS011;12775;46.994;15.498;2024-01-30T02:19:35;27.78;;;19.78;;
1987;SDS011;12775;46.994;15.498;2024-01-30T02:22:01;25.24;;;18.30;;
1987;SDS011;12775;46.994;15.498;2024-01-30T02:24:28;23.78;;;17.80;;
1987;SDS011;12775;46.994;15.498;2024-01-30T02:26:54;22.48;;;18.62;;
1987;SDS011;12775;46.994;15.498;2024-01-30T02:29:21;21.68;;;16.16;;
1987;SDS011;12775;46.994;15.498;2024-01-30T02:31:48;28.50;;;19.32;;
1987;SDS011;12775;46.994;15.498;2024-01-30T02:34:14;24.38;;;16.24;;
1987;SDS011;12775;46.994;15.498;2024-01-30T02:36:42;29.76;;;19.02;;
1987;SDS011;12775;46.994;15.498;2024-01-30T02:39:08;23.08;;;18.66;;
1987;SDS011;12775;46.994;15.498;2024-01-30T02:41:35;24.40;;;17.98;;
1987;SDS011;12775;46.994;15.498;2024-01-30T02:44:02;28.08;;;18.06;;
1987;SDS011;12775;46.994;15.498;2024-01-30T02:46:29;27.18;;;17.52;;
1987;SDS011;12775;46.994;15.498;2024-01-30T02:48:56;19.48;;;17.38;;
1987;SDS011;12775;46.994;15.498;2024-01-30T02:51:22;31.56;;;20.08;;
1987;SDS011;12775;46.994;15.498;2024-01-30T02:53:49;25.56;;;17.64;;
1987;SDS011;12775;46.994;15.498;2024-01-30T02:56:16;20.28;;;16.36;;
1987;SDS011;12775;46.994;15.498;2024-01-30T02:58:43;22.50;;;16.94;;
1987;SDS011;12775;46.994;15.498;2024-01-30T03:01:10;24.12;;;18.60;;
1987;SDS011;12775;46.994;15.498;2024-01-30T03:03:37;21.34;;;17.18;;
1987;SDS011;12775;46.994;15.498;2024-01-30T03:06:05;24.06;;;17.78;;
1987;SDS011;12775;46.994;15.498;2024-01-30T03:08:31;26.82;;;18.98;;
1987;SDS011;12775;46.994;15.498;2024-01-30T03:10:58;23.80;;;17.14;;
1987;SDS011;12775;46.994;15.498;2024-01-30T03:13:25;25.88;;;18.50;;
1987;SDS011;12775;46.994;15.498;2024-01-30T03:15:51;24.40;;;17.88;;
1987;SDS011;12775;46.994;15.498;2024-01-30T03:18:18;23.12;;;18.46;;
1987;SDS011;12775;46.994;15.498;2024-01-30T03:20:45;23.60;;;17.24;;
1987;SDS011;12775;46.994;15.498;2024-01-30T03:23:11;24.32;;;18.30;;
1987;SDS011;12775;46.994;15.498;2024-01-30T03:25:38;26.98;;;18.50;;
1987;SDS011;12775;46.994;15.498;2024-01-30T03:28:04;20.66;;;15.78;;
1987;SDS011;12775;46.994;15.498;2024-01-30T03:30:34;24.66;;;19.28;;
1987;SDS011;12775;46.994;15.498;2024-01-30T03:32:59;29.58;;;17.46;;
1987;SDS011;12775;46.994;15.498;2024-01-30T03:35:25;20.20;;;15.86;;
1987;SDS011;12775;46.994;15.498;2024-01-30T03:37:52;25.14;;;15.84;;
1987;SDS011;12775;46.994;15.498;2024-01-30T03:40:18;29.46;;;17.96;;
1987;SDS011;12775;46.994;15.498;2024-01-30T03:42:45;28.56;;;18.46;;
1987;SDS011;12775;46.994;15.498;2024-01-30T03:45:12;20.78;;;18.56;;
1987;SDS011;12775;46.994;15.498;2024-01-30T03:47:38;22.62;;;17.66;;
1987;SDS011;12775;46.994;15.498;2024-01-30T03:50:05;25.02;;;17.74;;
1987;SDS011;12775;46.994;15.498;2024-01-30T03:52:32;26.06;;;19.26;;
1987;SDS011;12775;46.994;15.498;2024-01-30T03:54:58;21.56;;;16.82;;
1987;SDS011;12775;46.994;15.498;2024-01-30T03:57:25;20.60;;;17.74;;
1987;SDS011;12775;46.994;15.498;2024-01-30T03:59:51;28.98;;;19.18;;
1987;SDS011;12775;46.994;15.498;2024-01-30T04:02:18;26.02;;;17.64;;
1987;SDS011;12775;46.994;15.498;2024-01-30T04:04:45;31.44;;;20.12;;
1987;SDS011;12775;46.994;15.498;2024-01-30T04:07:11;26.10;;;20.36;;
1987;SDS011;12775;46.994;15.498;2024-01-30T04:09:38;22.86;;;17.84;;
1987;SDS011;12775;46.994;15.498;2024-01-30T04:12:04;23.08;;;16.76;;
1987;SDS011;12775;46.994;15.498;2024-01-30T04:14:31;27.96;;;18.96;;
1987;SDS011;12775;46.994;15.498;2024-01-30T04:16:58;23.00;;;16.22;;
1987;SDS011;12775;46.994;15.498;2024-01-30T04:19:24;23.52;;;16.12;;
1987;SDS011;12775;46.994;15.498;2024-01-30T04:21:51;19.22;;;16.84;;
1987;SDS011;12775;46.994;15.498;2024-01-30T04:24:18;25.58;;;16.74;;
1987;SDS011;12775;46.994;15.498;2024-01-30T04:26:45;25.06;;;16.56;;
1987;SDS011;12775;46.994;15.498;2024-01-30T04:29:12;24.04;;;16.94;;
1987;SDS011;12775;46.994;15.498;2024-01-30T04:31:38;22.32;;;16.62;;
1987;SDS011;12775;46.994;15.498;2024-01-30T04:34:05;24.12;;;18.20;;
1987;SDS011;12775;46.994;15.498;2024-01-30T04:36:31;21.18;;;15.74;;
1987;SDS011;12775;46.994;15.498;2024-01-30T04:38:58;26.28;;;16.06;;
1987;SDS011;12775;46.994;15.498;2024-01-30T04:41:25;26.96;;;17.78;;
1987;SDS011;12775;46.994;15.498;2024-01-30T04:43:51;24.66;;;16.04;;
1987;SDS011;12775;46.994;15.498;2024-01-30T04:46:18;24.56;;;16.48;;
1987;SDS011;12775;46.994;15.498;2024-01-30T04:48:45;22.98;;;18.28;;
1987;SDS011;12775;46.994;15.498;2024-01-30T04:51:12;22.12;;;15.74;;
1987;SDS011;12775;46.994;15.498;2024-01-30T04:56:07;23.72;;;17.92;;
1987;SDS011;12775;46.994;15.498;2024-01-30T04:58:35;29.62;;;18.06;;
1987;SDS011;12775;46.994;15.498;2024-01-30T05:01:01;20.04;;;15.62;;
1987;SDS011;12775;46.994;15.498;2024-01-30T05:03:28;21.22;;;17.96;;
1987;SDS011;12775;46.994;15.498;2024-01-30T05:05:56;23.20;;;15.46;;
1987;SDS011;12775;46.994;15.498;2024-01-30T05:08:23;23.74;;;17.06;;
1987;SDS011;12775;46.994;15.498;2024-01-30T05:10:50;26.24;;;17.98;;
1987;SDS011;12775;46.994;15.498;2024-01-30T05:13:17;27.70;;;17.70;;
1987;SDS011;12775;46.994;15.498;2024-01-30T05:15:44;20.46;;;16.28;;
1987;SDS011;12775;46.994;15.498;2024-01-30T05:18:11;25.90;;;18.04;;
1987;SDS011;12775;46.994;15.498;2024-01-30T05:20:38;21.88;;;16.92;;
1987;SDS011;12775;46.994;15.498;2024-01-30T05:23:04;26.14;;;18.62;;
1987;SDS011;12775;46.994;15.498;2024-01-30T05:25:31;22.24;;;17.46;;
1987;SDS011;12775;46.994;15.498;2024-01-30T05:27:58;23.18;;;17.08;;
1987;SDS011;12775;46.994;15.498;2024-01-30T05:30:24;21.34;;;17.48;;
1987;SDS011;12775;46.994;15.498;2024-01-30T05:32:52;22.04;;;16.42;;
1987;SDS011;12775;46.994;15.498;2024-01-30T05:35:19;23.58;;;17.80;;
1987;SDS011;12775;46.994;15.498;2024-01-30T05:37:47;21.26;;;16.00;;
1987;SDS011;12775;46.994;15.498;2024-01-30T05:40:13;26.10;;;16.46;;
1987;SDS011;12775;46.994;15.498;2024-01-30T05:42:40;22.28;;;17.10;;
1987;SDS011;12775;46.994;15.498;2024-01-30T05:45:06;28.64;;;18.18;;
1987;SDS011;12775;46.994;15.498;2024-01-30T05:47:34;24.58;;;17.80;;
1987;SDS011;12775;46.994;15.498;2024-01-30T05:50:01;22.34;;;17.72;;
1987;SDS011;12775;46.994;15.498;2024-01-30T05:52:27;28.40;;;19.34;;
1987;SDS011;12775;46.994;15.498;2024-01-30T05:54:54;29.66;;;21.46;;
1987;SDS011;12775;46.994;15.498;2024-01-30T05:57:21;28.24;;;22.14;;
1987;SDS011;12775;46.994;15.498;2024-01-30T05:59:48;28.18;;;17.54;;
1987;SDS011;12775;46.994;15.498;2024-01-30T06:02:14;23.42;;;16.60;;
1987;SDS011;12775;46.994;15.498;2024-01-30T06:04:42;26.48;;;18.36;;
1987;SDS011;12775;46.994;15.498;2024-01-30T06:07:08;24.38;;;19.58;;
1987;SDS011;12775;46.994;15.498;2024-01-30T06:09:36;35.54;;;19.16;;
1987;SDS011;12775;46.994;15.498;2024-01-30T06:12:04;26.10;;;19.40;;
1987;SDS011;12775;46.994;15.498;2024-01-30T06:14:31;28.18;;;20.34;;
1987;SDS011;12775;46.994;15.498;2024-01-30T06:16:58;24.02;;;18.90;;
1987;SDS011;12775;46.994;15.498;2024-01-30T06:19:24;30.62;;;20.92;;
1987;SDS011;12775;46.994;15.498;2024-01-30T06:21:51;25.76;;;21.02;;
1987;SDS011;12775;46.994;15.498;2024-01-30T06:24:18;33.42;;;20.80;;
1987;SDS011;12775;46.994;15.498;2024-01-30T06:26:44;30.38;;;21.58;;
1987;SDS011;12775;46.994;15.498;2024-01-30T06:29:11;33.10;;;22.02;;
1987;SDS011;12775;46.994;15.498;2024-01-30T06:31:40;33.00;;;22.90;;
1987;SDS011;12775;46.994;15.498;2024-01-30T06:34:06;27.52;;;20.30;;
1987;SDS011;12775;46.994;15.498;2024-01-30T06:36:32;33.84;;;21.22;;
1987;SDS011;12775;46.994;15.498;2024-01-30T06:38:59;22.86;;;20.34;;
1987;SDS011;12775;46.994;15.498;2024-01-30T06:41:26;32.68;;;21.80;;
1987;SDS011;12775;46.994;15.498;2024-01-30T06:43:52;25.98;;;20.04;;
1987;SDS011;12775;46.994;15.498;2024-01-30T06:46:19;31.70;;;22.92;;
1987;SDS011;12775;46.994;15.498;2024-01-30T06:48:45;29.52;;;22.80;;
1987;SDS011;12775;46.994;15.498;2024-01-30T06:51:13;34.68;;;23.32;;
1987;SDS011;12775;46.994;15.498;2024-01-30T06:53:39;29.60;;;23.12;;
1987;SDS011;12775;46.994;15.498;2024-01-30T06:56:07;26.22;;;20.30;;
1987;SDS011;12775;46.994;15.498;2024-01-30T06:58:33;36.80;;;25.06;;
1987;SDS011;12775;46.994;15.498;2024-01-30T07:00:59;31.96;;;23.68;;
1987;SDS011;12775;46.994;15.498;2024-01-30T07:03:26;38.84;;;24.26;;
1987;SDS011;12775;46.994;15.498;2024-01-30T07:05:52;39.16;;;27.00;;
1987;SDS011;12775;46.994;15.498;2024-01-30T07:08:19;40.40;;;29.86;;
1987;SDS011;12775;46.994;15.498;2024-01-30T07:10:46;38.88;;;28.82;;
1987;SDS011;12775;46.994;15.498;2024-01-30T07:13:15;42.22;;;27.22;;
1987;SDS011;12775;46.994;15.498;2024-01-30T07:15:44;31.34;;;24.24;;
1987;SDS011;12775;46.994;15.498;2024-01-30T07:18:12;39.12;;;25.16;;
1987;SDS011;12775;46.994;15.498;2024-01-30T07:20:39;32.12;;;23.00;;
1987;SDS011;12775;46.994;15.498;2024-01-30T07:23:08;31.14;;;23.70;;
1987;SDS011;12775;46.994;15.498;2024-01-30T07:25:36;32.20;;;25.24;;
1987;SDS011;12775;46.994;15.498;2024-01-30T07:28:04;29.10;;;22.76;;
1987;SDS011;12775;46.994;15.498;2024-01-30T07:30:32;34.78;;;25.00;;
1987;SDS011;12775;46.994;15.498;2024-01-30T07:32:59;33.34;;;24.28;;
1987;SDS011;12775;46.994;15.498;2024-01-30T07:35:26;30.22;;;25.78;;
1987;SDS011;12775;46.994;15.498;2024-01-30T07:37:53;42.30;;;26.14;;
1987;SDS011;12775;46.994;15.498;2024-01-30T07:40:21;33.66;;;24.46;;
1987;SDS011;12775;46.994;15.498;2024-01-30T07:42:49;32.92;;;23.98;;
1987;SDS011;12775;46.994;15.498;2024-01-30T07:45:16;28.18;;;21.78;;
1987;SDS011;12775;46.994;15.498;2024-01-30T07:47:43;32.46;;;23.58;;
1987;SDS011;12775;46.994;15.498;2024-01-30T07:50:11;30.00;;;23.60;;
1987;SDS011;12775;46.994;15.498;2024-01-30T07:52:38;31.46;;;22.46;;
1987;SDS011;12775;46.994;15.498;2024-01-30T07:55:06;30.32;;;22.84;;
1987;SDS011;12775;46.994;15.498;2024-01-30T07:57:34;31.64;;;22.80;;
1987;SDS011;12775;46.994;15.498;2024-01-30T08:00:01;34.28;;;24.84;;
1987;SDS011;12775;46.994;15.498;2024-01-30T08:02:28;37.38;;;28.06;;
1987;SDS011;12775;46.994;15.498;2024-01-30T08:04:54;37.98;;;27.64;;
1987;SDS011;12775;46.994;15.498;2024-01-30T08:07:21;38.42;;;26.34;;
1987;SDS011;12775;46.994;15.498;2024-01-30T08:09:47;30.90;;;25.18;;
1987;SDS011;12775;46.994;15.498;2024-01-30T08:12:14;32.88;;;27.70;;
1987;SDS011;12775;46.994;15.498;2024-01-30T08:14:41;38.22;;;30.36;;
1987;SDS011;12775;46.994;15.498;2024-01-30T08:17:08;37.50;;;29.72;;
1987;SDS011;12775;46.994;15.498;2024-01-30T08:19:35;32.78;;;28.66;;
1987;SDS011;12775;46.994;15.498;2024-01-30T08:22:02;36.80;;;29.74;;
1987;SDS011;12775;46.994;15.498;2024-01-30T08:24:29;35.18;;;30.90;;
1987;SDS011;12775;46.994;15.498;2024-01-30T08:26:55;40.56;;;31.08;;
1987;SDS011;12775;46.994;15.498;2024-01-30T08:29:22;31.70;;;26.18;;
1987;SDS011;12775;46.994;15.498;2024-01-30T08:31:48;35.14;;;26.50;;
1987;SDS011;12775;46.994;15.498;2024-01-30T08:34:16;40.24;;;25.86;;
1987;SDS011;12775;46.994;15.498;2024-01-30T08:36:43;31.30;;;23.48;;
1987;SDS011;12775;46.994;15.498;2024-01-30T08:39:09;29.64;;;23.94;;
1987;SDS011;12775;46.994;15.498;2024-01-30T08:41:36;33.94;;;23.14;;
1987;SDS011;12775;46.994;15.498;2024-01-30T08:44:02;31.88;;;24.78;;
1987;SDS011;12775;46.994;15.498;2024-01-30T08:46:29;29.14;;;23.56;;
1987;SDS011;12775;46.994;15.498;2024-01-30T08:48:56;28.22;;;22.12;;
1987;SDS011;12775;46.994;15.498;2024-01-30T08:51:22;30.46;;;24.24;;
1987;SDS011;12775;46.994;15.498;2024-01-30T08:53:49;27.36;;;22.76;;
1987;SDS011;12775;46.994;15.498;2024-01-30T08:56:15;33.22;;;24.54;;
1987;SDS011;12775;46.994;15.498;2024-01-30T08:58:42;31.26;;;22.82;;
1987;SDS011;12775;46.994;15.498;2024-01-30T09:01:09;27.66;;;24.54;;
1987;SDS011;12775;46.994;15.498;2024-01-30T09:03:35;29.20;;;24.32;;
1987;SDS011;12775;46.994;15.498;2024-01-30T09:06:02;29.26;;;25.08;;
1987;SDS011;12775;46.994;15.498;2024-01-30T09:08:28;38.70;;;26.94;;
1987;SDS011;12775;46.994;15.498;2024-01-30T09:10:55;26.72;;;21.98;;
1987;SDS011;12775;46.994;15.498;2024-01-30T09:13:22;29.12;;;22.18;;
1987;SDS011;12775;46.994;15.498;2024-01-30T09:15:49;30.04;;;20.44;;
1987;SDS011;12775;46.994;15.498;2024-01-30T09:18:16;33.12;;;23.80;;
1987;SDS011;12775;46.994;15.498;2024-01-30T09:20:43;28.00;;;21.90;;
1987;SDS011;12775;46.994;15.498;2024-01-30T09:23:10;30.60;;;22.76;;
1987;SDS011;12775;46.994;15.498;2024-01-30T09:25:36;32.98;;;23.04;;
1987;SDS011;12775;46.994;15.498;2024-01-30T09:28:03;24.38;;;20.62;;
1987;SDS011;12775;46.994;15.498;2024-01-30T09:30:30;29.96;;;23.00;;
1987;SDS011;12775;46.994;15.498;2024-01-30T09:32:56;23.94;;;20.52;;
1987;SDS011;12775;46.994;15.498;2024-01-30T09:35:23;27.76;;;22.42;;
1987;SDS011;12775;46.994;15.498;2024-01-30T09:37:50;23.96;;;20.48;;
1987;SDS011;12775;46.994;15.498;2024-01-30T09:40:17;26.54;;;20.54;;
1987;SDS011;12775;46.994;15.498;2024-01-30T09:42:43;25.62;;;19.44;;
1987;SDS011;12775;46.994;15.498;2024-01-30T09:45:10;22.18;;;19.88;;
1987;SDS011;12775;46.994;15.498;2024-01-30T09:47:40;21.70;;;18.96;;
1987;SDS011;12775;46.994;15.498;2024-01-30T09:50:09;20.50;;;17.70;;
1987;SDS011;12775;46.994;15.498;2024-01-30T09:52:36;26.74;;;18.70;;
1987;SDS011;12775;46.994;15.498;2024-01-30T09:55:03;25.60;;;18.86;;
1987;SDS011;12775;46.994;15.498;2024-01-30T09:57:30;26.52;;;20.06;;
1987;SDS011;12775;46.994;15.498;2024-01-30T09:59:56;21.78;;;18.34;;
1987;SDS011;12775;46.994;15.498;2024-01-30T10:02:23;24.28;;;18.60;;
1987;SDS011;12775;46.994;15.498;2024-01-30T10:04:50;31.64;;;20.82;;
1987;SDS011;12775;46.994;15.498;2024-01-30T10:07:16;27.90;;;19.50;;
1987;SDS011;12775;46.994;15.498;2024-01-30T10:09:44;24.84;;;19.12;;
1987;SDS011;12775;46.994;15.498;2024-01-30T10:12:10;24.82;;;20.70;;
1987;SDS011;12775;46.994;15.498;2024-01-30T10:14:38;23.98;;;19.26;;
1987;SDS011;12775;46.994;15.498;2024-01-30T10:17:08;27.52;;;19.96;;
1987;SDS011;12775;46.994;15.498;2024-01-30T10:19:32;25.58;;;20.38;;
1987;SDS011;12775;46.994;15.498;2024-01-30T10:21:59;22.46;;;19.18;;
1987;SDS011;12775;46.994;15.498;2024-01-30T10:24:26;23.62;;;18.44;;
1987;SDS011;12775;46.994;15.498;2024-01-30T10:26:53;25.42;;;19.14;;
1987;SDS011;12775;46.994;15.498;2024-01-30T10:29:20;24.78;;;18.36;;
1987;SDS011;12775;46.994;15.498;2024-01-30T10:32:02;20.10;;;16.90;;
1987;SDS011;12775;46.994;15.498;2024-01-30T10:34:28;22.02;;;17.88;;
1987;SDS011;12775;46.994;15.498;2024-01-30T10:37:00;23.06;;;16.16;;
1987;SDS011;12775;46.994;15.498;2024-01-30T10:39:42;23.26;;;20.36;;
1987;SDS011;12775;46.994;15.498;2024-01-30T10:42:11;22.18;;;16.80;;
1987;SDS011;12775;46.994;15.498;2024-01-30T10:44:43;25.66;;;17.34;;
1987;SDS011;12775;46.994;15.498;2024-01-30T10:47:26;18.78;;;15.04;;
1987;SDS011;12775;46.994;15.498;2024-01-30T10:49:52;20.90;;;16.00;;
1987;SDS011;12775;46.994;15.498;2024-01-30T10:52:20;17.76;;;15.00;;
1987;SDS011;12775;46.994;15.498;2024-01-30T10:54:46;18.96;;;14.18;;
1987;SDS011;12775;46.994;15.498;2024-01-30T10:57:12;18.62;;;14.32;;
1987;SDS011;12775;46.994;15.498;2024-01-30T10:59:39;15.48;;;12.96;;
1987;SDS011;12775;46.994;15.498;2024-01-30T11:02:06;18.26;;;15.86;;
1987;SDS011;12775;46.994;15.498;2024-01-30T11:04:36;16.30;;;14.54;;
1987;SDS011;12775;46.994;15.498;2024-01-30T11:07:02;17.96;;;12.14;;
1987;SDS011;12775;46.994;15.498;2024-01-30T11:09:29;13.22;;;11.82;;
1987;SDS011;12775;46.994;15.498;2024-01-30T11:11:57;15.74;;;13.12;;
1987;SDS011;12775;46.994;15.498;2024-01-30T11:14:26;17.96;;;11.20;;
1987;SDS011;12775;46.994;15.498;2024-01-30T11:16:56;13.22;;;11.00;;
1987;SDS011;12775;46.994;15.498;2024-01-30T11:19:22;13.74;;;11.56;;
1987;SDS011;12775;46.994;15.498;2024-01-30T11:21:49;15.38;;;11.60;;
1987;SDS011;12775;46.994;15.498;2024-01-30T11:24:15;20.60;;;14.76;;
1987;SDS011;12775;46.994;15.498;2024-01-30T11:26:42;14.50;;;12.44;;
1987;SDS011;12775;46.994;15.498;2024-01-30T11:29:08;12.56;;;11.10;;
1987;SDS011;12775;46.994;15.498;2024-01-30T11:31:35;16.00;;;12.06;;
1987;SDS011;12775;46.994;15.498;2024-01-30T11:34:01;12.92;;;11.46;;
1987;SDS011;12775;46.994;15.498;2024-01-30T11:36:28;12.52;;;10.30;;
1987;SDS011;12775;46.994;15.498;2024-01-30T11:38:54;15.02;;;10.74;;
1987;SDS011;12775;46.994;15.498;2024-01-30T11:41:21;15.26;;;12.02;;
1987;SDS011;12775;46.994;15.498;2024-01-30T11:43:51;15.10;;;10.98;;
1987;SDS011;12775;46.994;15.498;2024-01-30T11:46:18;16.48;;;13.08;;
1987;SDS011;12775;46.994;15.498;2024-01-30T11:48:45;12.10;;;10.30;;
1987;SDS011;12775;46.994;15.498;2024-01-30T11:51:13;14.26;;;12.64;;
1987;SDS011;12775;46.994;15.498;2024-01-30T11:53:39;21.00;;;12.08;;
1987;SDS011;12775;46.994;15.498;2024-01-30T11:56:06;13.56;;;11.74;;
1987;SDS011;12775;46.994;15.498;2024-01-30T11:58:33;14.50;;;12.38;;
1987;SDS011;12775;46.994;15.498;2024-01-30T12:01:00;16.04;;;11.86;;
1987;SDS011;12775;46.994;15.498;2024-01-30T12:03:26;16.96;;;13.08;;
1987;SDS011;12775;46.994;15.498;2024-01-30T12:05:55;15.12;;;13.58;;
1987;SDS011;12775;46.994;15.498;2024-01-30T12:08:22;18.50;;;15.52;;
1987;SDS011;12775;46.994;15.498;2024-01-30T12:10:55;16.08;;;11.58;;
1987;SDS011;12775;46.994;15.498;2024-01-30T12:13:21;19.22;;;12.20;;
1987;SDS011;12775;46.994;15.498;2024-01-30T12:15:48;13.66;;;12.44;;
1987;SDS011;12775;46.994;15.498;2024-01-30T12:18:18;26.48;;;15.68;;
1987;SDS011;12775;46.994;15.498;2024-01-30T12:20:41;20.28;;;12.92;;
1987;SDS011;12775;46.994;15.498;2024-01-30T12:23:07;14.44;;;12.00;;
1987;SDS011;12775;46.994;15.498;2024-01-30T12:25:36;13.48;;;12.00;;
1987;SDS011;12775;46.994;15.498;2024-01-30T12:28:01;17.42;;;11.98;;
1987;SDS011;12775;46.994;15.498;2024-01-30T12:30:28;14.24;;;12.74;;
1987;SDS011;12775;46.994;15.498;2024-01-30T12:32:55;18.94;;;12.42;;
1987;SDS011;12775;46.994;15.498;2024-01-30T12:35:21;14.30;;;11.52;;
1987;SDS011;12775;46.994;15.498;2024-01-30T12:37:49;14.84;;;12.76;;
1987;SDS011;12775;46.994;15.498;2024-01-30T12:40:16;15.26;;;11.90;;
1987;SDS011;12775;46.994;15.498;2024-01-30T12:42:43;21.54;;;13.30;;
1987;SDS011;12775;46.994;15.498;2024-01-30T12:45:09;14.56;;;11.66;;
1987;SDS011;12775;46.994;15.498;2024-01-30T12:47:36;14.60;;;12.96;;
1987;SDS011;12775;46.994;15.498;2024-01-30T12:50:04;13.70;;;12.28;;
1987;SDS011;12775;46.994;15.498;2024-01-30T12:52:30;14.72;;;11.92;;
1987;SDS011;12775;46.994;15.498;2024-01-30T12:54:57;16.84;;;12.54;;
1987;SDS011;12775;46.994;15.498;2024-01-30T12:57:24;15.68;;;13.96;;
1987;SDS011;12775;46.994;15.498;2024-01-30T12:59:51;14.74;;;11.94;;
1987;SDS011;12775;46.994;15.498;2024-01-30T13:02:18;14.16;;;12.28;;
1987;SDS011;12775;46.994;15.498;2024-01-30T13:04:44;12.80;;;11.50;;
1987;SDS011;12775;46.994;15.498;2024-01-30T13:07:11;17.14;;;14.68;;
1987;SDS011;12775;46.994;15.498;2024-01-30T13:09:37;15.76;;;13.22;;
1987;SDS011;12775;46.994;15.498;2024-01-30T13:12:04;15.28;;;11.98;;
1987;SDS011;12775;46.994;15.498;2024-01-30T13:14:31;15.14;;;11.92;;
1987;SDS011;12775;46.994;15.498;2024-01-30T13:16:58;14.98;;;13.16;;
1987;SDS011;12775;46.994;15.498;2024-01-30T13:19:25;15.78;;;14.30;;
1987;SDS011;12775;46.994;15.498;2024-01-30T13:21:51;17.14;;;13.74;;
1987;SDS011;12775;46.994;15.498;2024-01-30T13:24:19;14.20;;;12.80;;
1987;SDS011;12775;46.994;15.498;2024-01-30T13:26:45;16.20;;;13.10;;
1987;SDS011;12775;46.994;15.498;2024-01-30T13:29:12;15.48;;;12.50;;
1987;SDS011;12775;46.994;15.498;2024-01-30T13:31:38;22.36;;;17.80;;
1987;SDS011;12775;46.994;15.498;2024-01-30T13:34:05;18.98;;;13.32;;
1987;SDS011;12775;46.994;15.498;2024-01-30T13:36:33;17.18;;;13.98;;
1987;SDS011;12775;46.994;15.498;2024-01-30T13:39:00;18.90;;;15.74;;
1987;SDS011;12775;46.994;15.498;2024-01-30T13:41:27;18.10;;;13.00;;
1987;SDS011;12775;46.994;15.498;2024-01-30T13:43:55;23.42;;;14.44;;
1987;SDS011;12775;46.994;15.498;2024-01-30T13:46:21;14.76;;;13.30;;
1987;SDS011;12775;46.994;15.498;2024-01-30T13:48:48;20.92;;;12.50;;
1987;SDS011;12775;46.994;15.498;2024-01-30T13:51:14;13.60;;;12.18;;
1987;SDS011;12775;46.994;15.498;2024-01-30T13:53:41;16.94;;;11.60;;
1987;SDS011;12775;46.994;15.498;2024-01-30T13:56:08;16.08;;;11.72;;
1987;SDS011;12775;46.994;15.498;2024-01-30T13:58:34;15.14;;;12.18;;
1987;SDS011;12775;46.994;15.498;2024-01-30T14:01:01;16.78;;;12.86;;
1987;SDS011;12775;46.994;15.498;2024-01-30T14:03:27;14.26;;;11.94;;
1987;SDS011;12775;46.994;15.498;2024-01-30T14:05:54;12.18;;;10.94;;
1987;SDS011;12775;46.994;15.498;2024-01-30T14:08:21;13.40;;;11.88;;
1987;SDS011;12775;46.994;15.498;2024-01-30T14:10:47;13.80;;;12.40;;
1987;SDS011;12775;46.994;15.498;2024-01-30T14:13:15;12.00;;;10.90;;
1987;SDS011;12775;46.994;15.498;2024-01-30T14:15:41;16.58;;;11.80;;
1987;SDS011;12775;46.994;15.498;2024-01-30T14:18:08;12.64;;;11.18;;
1987;SDS011;12775;46.994;15.498;2024-01-30T14:20:34;13.88;;;12.40;;